createdAt,value
2018-06-20T00:00:52.651Z,0.00
2018-06-20T00:01:52.636Z,0.00
2018-06-20T00:02:52.621Z,0.00
2018-06-20T00:03:52.609Z,0.00
2018-06-20T00:04:52.592Z,0.00
2018-06-20T00:05:52.576Z,0.00
2018-06-20T00:06:52.564Z,0.00
2018-06-20T00:07:52.552Z,0.00
2018-06-20T00:08:52.535Z,0.00
2018-06-20T00:09:52.518Z,0.00
2018-06-20T00:10:52.508Z,0.00
2018-06-20T00:11:52.491Z,0.00
2018-06-20T00:12:52.477Z,0.00
2018-06-20T00:13:52.458Z,0.00
2018-06-20T00:14:52.447Z,0.00
2018-06-20T00:15:52.434Z,0.00
2018-06-20T00:16:52.416Z,0.00
2018-06-20T00:17:52.402Z,0.00
2018-06-20T00:18:52.388Z,0.00
2018-06-20T00:19:52.373Z,0.00
2018-06-20T00:20:52.359Z,0.00
2018-06-20T00:21:52.343Z,0.00
2018-06-20T00:22:52.329Z,0.00
2018-06-20T00:23:52.315Z,0.00
2018-06-20T00:24:52.301Z,0.00
2018-06-20T00:25:52.284Z,0.00
2018-06-20T00:26:52.275Z,0.00
2018-06-20T00:27:52.261Z,0.00
2018-06-20T00:28:52.242Z,0.00
2018-06-20T00:29:52.230Z,0.00
2018-06-20T00:30:52.212Z,0.00
2018-06-20T00:31:52.198Z,0.00
2018-06-20T00:32:52.183Z,0.00
2018-06-20T00:33:52.167Z,0.00
2018-06-20T00:34:52.153Z,0.00
2018-06-20T00:35:52.139Z,0.00
2018-06-20T00:36:52.129Z,0.00
2018-06-20T00:37:52.112Z,0.00
2018-06-20T00:38:52.097Z,0.00
2018-06-20T00:39:52.082Z,0.00
2018-06-20T00:40:52.069Z,0.00
2018-06-20T00:41:52.052Z,0.00
2018-06-20T00:42:52.037Z,0.00
2018-06-20T00:43:52.026Z,0.00
2018-06-20T00:44:52.016Z,0.00
2018-06-20T00:45:51.992Z,0.00
2018-06-20T00:46:51.986Z,0.00
2018-06-20T00:47:52.314Z,0.00
2018-06-20T00:48:51.951Z,0.00
2018-06-20T00:49:51.934Z,0.00
2018-06-20T00:50:51.920Z,0.00
2018-06-20T00:51:51.905Z,0.00
2018-06-20T00:52:51.889Z,0.00
2018-06-20T00:53:51.875Z,0.00
2018-06-20T00:54:51.858Z,0.00
2018-06-20T00:55:51.849Z,0.00
2018-06-20T00:56:51.836Z,0.00
2018-06-20T00:57:51.816Z,0.00
2018-06-20T00:58:51.802Z,0.00
2018-06-20T00:59:51.785Z,0.00
2018-06-20T01:00:51.792Z,0.00
2018-06-20T01:01:51.761Z,0.00
2018-06-20T01:02:51.743Z,0.00
2018-06-20T01:03:51.730Z,0.00
2018-06-20T01:04:51.713Z,0.00
2018-06-20T01:05:51.699Z,0.00
2018-06-20T01:06:51.684Z,0.00
2018-06-20T01:07:51.673Z,0.00
2018-06-20T01:08:51.657Z,0.00
2018-06-20T01:09:51.642Z,0.00
2018-06-20T01:10:51.626Z,0.00
2018-06-20T01:11:51.638Z,0.00
2018-06-20T01:12:51.597Z,0.00
2018-06-20T01:13:51.580Z,0.00
2018-06-20T01:14:51.568Z,0.00
2018-06-20T01:15:51.550Z,0.00
2018-06-20T01:16:51.536Z,0.00
2018-06-20T01:17:51.519Z,0.00
2018-06-20T01:18:51.507Z,0.00
2018-06-20T01:19:51.495Z,0.00
2018-06-20T01:20:51.475Z,0.00
2018-06-20T01:21:51.462Z,0.00
2018-06-20T01:22:51.447Z,0.00
2018-06-20T01:23:51.431Z,0.00
2018-06-20T01:24:51.427Z,0.00
2018-06-20T01:25:51.400Z,0.00
2018-06-20T01:26:51.387Z,0.00
2018-06-20T01:27:51.371Z,0.00
2018-06-20T01:28:51.355Z,0.00
2018-06-20T01:29:51.387Z,0.00
2018-06-20T01:30:51.325Z,0.00
2018-06-20T01:31:51.310Z,0.00
2018-06-20T01:32:51.295Z,0.00
2018-06-20T01:33:51.279Z,0.00
2018-06-20T01:34:51.263Z,0.00
2018-06-20T01:35:51.249Z,0.00
2018-06-20T01:36:51.234Z,0.00
2018-06-20T01:37:51.219Z,0.00
2018-06-20T01:38:51.204Z,0.00
2018-06-20T01:39:51.189Z,0.00
2018-06-20T01:40:51.180Z,0.00
2018-06-20T01:41:51.156Z,0.00
2018-06-20T01:42:51.750Z,0.00
2018-06-20T01:43:51.130Z,0.00
2018-06-20T01:44:51.111Z,0.00
2018-06-20T01:45:51.096Z,0.00
2018-06-20T01:46:51.081Z,0.00
2018-06-20T01:47:51.065Z,0.00
2018-06-20T01:48:51.055Z,0.00
2018-06-20T01:49:51.035Z,0.00
2018-06-20T01:50:51.019Z,0.00
2018-06-20T01:51:51.005Z,0.00
2018-06-20T01:52:50.989Z,0.00
2018-06-20T01:53:50.971Z,0.00
2018-06-20T01:54:50.960Z,0.00
2018-06-20T01:55:50.942Z,0.00
2018-06-20T01:56:50.928Z,0.00
2018-06-20T01:57:50.909Z,0.00
2018-06-20T01:58:50.900Z,0.00
2018-06-20T01:59:50.882Z,0.00
2018-06-20T02:00:50.864Z,0.00
2018-06-20T02:01:50.850Z,0.00
2018-06-20T02:02:50.834Z,0.00
2018-06-20T02:03:50.819Z,0.00
2018-06-20T02:04:50.804Z,0.00
2018-06-20T02:05:50.789Z,0.00
2018-06-20T02:06:50.771Z,0.00
2018-06-20T02:07:50.757Z,0.00
2018-06-20T02:08:50.739Z,0.00
2018-06-20T02:09:50.729Z,0.00
2018-06-20T02:10:50.710Z,0.00
2018-06-20T02:11:50.696Z,0.00
2018-06-20T02:12:50.679Z,0.00
2018-06-20T02:13:50.663Z,0.00
2018-06-20T02:14:50.646Z,0.00
2018-06-20T02:15:50.631Z,0.00
2018-06-20T02:16:50.615Z,0.00
2018-06-20T02:17:50.602Z,0.00
2018-06-20T02:18:50.584Z,0.00
2018-06-20T02:19:50.572Z,0.00
2018-06-20T02:20:50.561Z,0.00
2018-06-20T02:21:50.538Z,0.00
2018-06-20T02:22:50.520Z,0.00
2018-06-20T02:23:50.506Z,0.00
2018-06-20T02:24:50.491Z,0.00
2018-06-20T02:25:50.473Z,0.00
2018-06-20T02:26:50.459Z,0.00
2018-06-20T02:27:50.445Z,0.00
2018-06-20T02:28:50.478Z,0.00
2018-06-20T02:29:50.412Z,0.00
2018-06-20T02:30:50.399Z,0.00
2018-06-20T02:31:50.383Z,0.00
2018-06-20T02:32:50.369Z,0.00
2018-06-20T02:33:50.349Z,0.00
2018-06-20T02:34:50.326Z,0.00
2018-06-20T02:35:50.319Z,0.00
2018-06-20T02:36:50.377Z,0.00
2018-06-20T02:37:50.287Z,0.00
2018-06-20T02:38:50.273Z,0.00
2018-06-20T02:39:50.407Z,0.00
2018-06-20T02:40:50.240Z,0.00
2018-06-20T02:41:50.227Z,0.00
2018-06-20T02:42:50.208Z,0.00
2018-06-20T02:43:50.200Z,0.00
2018-06-20T02:44:50.185Z,0.00
2018-06-20T02:45:50.161Z,0.00
2018-06-20T02:46:50.146Z,5.63
2018-06-20T02:47:50.131Z,5.63
2018-06-20T02:48:50.114Z,5.63
2018-06-20T02:49:50.097Z,5.63
2018-06-20T02:50:50.082Z,5.63
2018-06-20T02:51:50.067Z,5.63
2018-06-20T02:52:50.140Z,5.63
2018-06-20T02:53:50.035Z,5.63
2018-06-20T02:54:50.019Z,11.25
2018-06-20T02:55:50.004Z,11.25
2018-06-20T02:56:49.991Z,11.25
2018-06-20T02:57:49.972Z,16.88
2018-06-20T02:58:49.959Z,22.50
2018-06-20T02:59:49.945Z,22.50
2018-06-20T03:00:49.928Z,22.50
2018-06-20T03:01:49.910Z,22.50
2018-06-20T03:02:49.893Z,22.50
2018-06-20T03:03:49.879Z,22.50
2018-06-20T03:04:49.867Z,22.50
2018-06-20T03:05:49.845Z,22.50
2018-06-20T03:06:49.829Z,22.50
2018-06-20T03:07:49.815Z,22.50
2018-06-20T03:08:49.800Z,16.88
2018-06-20T03:09:49.781Z,16.88
2018-06-20T03:10:49.767Z,16.88
2018-06-20T03:11:49.752Z,16.88
2018-06-20T03:12:49.736Z,16.88
2018-06-20T03:13:49.729Z,16.88
2018-06-20T03:14:49.706Z,16.88
2018-06-20T03:15:49.739Z,16.88
2018-06-20T03:16:49.674Z,16.88
2018-06-20T03:17:49.662Z,16.88
2018-06-20T03:18:49.692Z,16.88
2018-06-20T03:19:49.627Z,16.88
2018-06-20T03:20:49.622Z,16.88
2018-06-20T03:21:49.599Z,22.50
2018-06-20T03:22:49.579Z,22.50
2018-06-20T03:23:49.564Z,22.50
2018-06-20T03:24:49.548Z,22.50
2018-06-20T03:25:49.531Z,22.50
2018-06-20T03:26:49.519Z,22.50
2018-06-20T03:27:49.504Z,22.50
2018-06-20T03:28:49.486Z,28.13
2018-06-20T03:29:49.473Z,28.13
2018-06-20T03:30:49.454Z,28.13
2018-06-20T03:31:49.447Z,28.13
2018-06-20T03:32:49.424Z,28.13
2018-06-20T03:33:49.408Z,28.13
2018-06-20T03:34:49.395Z,28.13
2018-06-20T03:35:49.376Z,28.13
2018-06-20T03:36:49.360Z,28.13
2018-06-20T03:37:49.352Z,28.13
2018-06-20T03:38:49.329Z,28.13
2018-06-20T03:39:49.316Z,28.13
2018-06-20T03:40:49.298Z,28.13
2018-06-20T03:41:49.332Z,28.13
2018-06-20T03:42:49.268Z,33.75
2018-06-20T03:43:49.252Z,33.75
2018-06-20T03:44:49.236Z,33.75
2018-06-20T03:45:49.221Z,33.75
2018-06-20T03:46:49.204Z,39.38
2018-06-20T03:47:49.192Z,39.38
2018-06-20T03:48:49.177Z,45.00
2018-06-20T03:49:49.160Z,45.00
2018-06-20T03:50:49.144Z,45.00
2018-06-20T03:51:49.128Z,45.00
2018-06-20T03:52:49.112Z,50.63
2018-06-20T03:53:49.096Z,50.63
2018-06-20T03:54:49.080Z,50.63
2018-06-20T03:55:49.074Z,56.25
2018-06-20T03:56:49.102Z,56.25
2018-06-20T03:57:49.033Z,56.25
2018-06-20T03:58:49.019Z,56.25
2018-06-20T03:59:49.058Z,56.25
2018-06-20T04:00:48.992Z,61.88
2018-06-20T04:01:48.971Z,61.88
2018-06-20T04:02:48.959Z,61.88
2018-06-20T04:03:48.940Z,61.88
2018-06-20T04:04:48.927Z,61.88
2018-06-20T04:05:48.910Z,61.88
2018-06-20T04:06:48.895Z,61.88
2018-06-20T04:07:48.882Z,61.88
2018-06-20T04:08:48.865Z,61.88
2018-06-20T04:09:48.852Z,67.50
2018-06-20T04:10:48.834Z,67.50
2018-06-20T04:11:48.823Z,67.50
2018-06-20T04:12:48.909Z,67.50
2018-06-20T04:13:48.788Z,73.13
2018-06-20T04:14:48.777Z,73.13
2018-06-20T04:15:48.758Z,78.75
2018-06-20T04:16:48.750Z,78.75
2018-06-20T04:17:48.729Z,78.75
2018-06-20T04:18:48.722Z,78.75
2018-06-20T04:19:48.699Z,84.38
2018-06-20T04:20:48.684Z,84.38
2018-06-20T04:21:48.668Z,90.00
2018-06-20T04:22:48.653Z,90.00
2018-06-20T04:23:48.638Z,84.38
2018-06-20T04:24:48.623Z,84.38
2018-06-20T04:25:48.613Z,84.38
2018-06-20T04:26:48.591Z,90.00
2018-06-20T04:27:48.577Z,90.00
2018-06-20T04:28:48.564Z,95.63
2018-06-20T04:29:48.549Z,95.63
2018-06-20T04:30:48.530Z,95.63
2018-06-20T04:31:48.518Z,101.25
2018-06-20T04:32:48.504Z,101.25
2018-06-20T04:34:31.022Z,101.25
2018-06-20T04:35:31.005Z,101.25
2018-06-20T04:36:30.985Z,101.25
2018-06-20T04:37:30.981Z,101.25
2018-06-20T04:38:30.957Z,106.88
2018-06-20T04:39:30.942Z,106.88
2018-06-20T04:40:30.924Z,101.25
2018-06-20T04:41:30.909Z,101.25
2018-06-20T04:42:30.895Z,101.25
2018-06-20T04:43:30.878Z,95.63
2018-06-20T04:44:30.883Z,95.63
2018-06-20T04:45:30.854Z,101.25
2018-06-20T04:46:30.835Z,101.25
2018-06-20T04:47:30.821Z,101.25
2018-06-20T04:48:30.806Z,101.25
2018-06-20T04:49:30.800Z,101.25
2018-06-20T04:50:30.778Z,106.88
2018-06-20T04:51:30.763Z,101.25
2018-06-20T04:52:30.749Z,101.25
2018-06-20T04:53:30.734Z,101.25
2018-06-20T04:54:30.720Z,101.25
2018-06-20T04:55:30.742Z,95.63
2018-06-20T04:56:30.694Z,95.63
2018-06-20T04:57:30.678Z,95.63
2018-06-20T04:58:30.659Z,95.63
2018-06-20T04:59:30.645Z,95.63
2018-06-20T05:00:30.631Z,95.63
2018-06-20T05:01:30.615Z,95.63
2018-06-20T05:02:30.605Z,95.63
2018-06-20T05:03:30.588Z,95.63
2018-06-20T05:04:30.575Z,95.63
2018-06-20T05:05:30.559Z,95.63
2018-06-20T05:06:30.545Z,90.00
2018-06-20T05:07:30.537Z,90.00
2018-06-20T05:08:30.517Z,90.00
2018-06-20T05:09:30.500Z,90.00
2018-06-20T05:10:30.487Z,90.00
2018-06-20T05:11:30.473Z,95.63
2018-06-20T05:12:30.457Z,95.63
2018-06-20T05:13:30.443Z,101.25
2018-06-20T05:14:30.432Z,106.88
2018-06-20T05:15:30.413Z,106.88
2018-06-20T05:16:30.404Z,106.88
2018-06-20T05:17:30.384Z,106.88
2018-06-20T05:18:30.370Z,106.88
2018-06-20T05:19:30.356Z,112.50
2018-06-20T05:20:30.343Z,112.50
2018-06-20T05:21:30.325Z,112.50
2018-06-20T05:22:30.327Z,118.13
2018-06-20T05:23:30.316Z,118.13
2018-06-20T05:24:30.284Z,118.13
2018-06-20T05:25:30.270Z,118.13
2018-06-20T05:26:30.253Z,112.50
2018-06-20T05:27:30.254Z,112.50
2018-06-20T05:28:30.227Z,118.13
2018-06-20T05:29:30.211Z,118.13
2018-06-20T05:30:30.204Z,118.13
2018-06-20T05:31:30.190Z,123.75
2018-06-20T05:32:30.170Z,118.13
2018-06-20T05:33:30.152Z,118.13
2018-06-20T05:34:30.141Z,118.13
2018-06-20T05:35:30.129Z,118.13
2018-06-20T05:36:30.126Z,118.13
2018-06-20T05:37:30.100Z,118.13
2018-06-20T05:38:30.085Z,118.13
2018-06-20T05:39:30.071Z,118.13
2018-06-20T05:40:30.059Z,118.13
2018-06-20T05:41:30.042Z,118.13
2018-06-20T05:42:30.030Z,118.13
2018-06-20T05:43:30.014Z,118.13
2018-06-20T05:44:29.999Z,118.13
2018-06-20T05:45:29.985Z,123.75
2018-06-20T05:46:29.974Z,123.75
2018-06-20T05:47:29.956Z,129.38
2018-06-20T05:48:29.944Z,129.38
2018-06-20T05:49:29.932Z,135.00
2018-06-20T05:50:29.914Z,135.00
2018-06-20T05:51:29.900Z,140.63
2018-06-20T05:52:29.887Z,140.63
2018-06-20T05:53:29.877Z,140.63
2018-06-20T05:54:29.860Z,146.25
2018-06-20T05:55:29.847Z,146.25
2018-06-20T05:56:29.836Z,146.25
2018-06-20T05:57:29.817Z,146.25
2018-06-20T05:58:29.803Z,146.25
2018-06-20T05:59:29.788Z,146.25
2018-06-20T06:00:29.776Z,146.25
2018-06-20T06:01:29.765Z,151.88
2018-06-20T06:02:29.750Z,151.88
2018-06-20T06:03:29.730Z,151.88
2018-06-20T06:04:29.718Z,151.88
2018-06-20T06:05:29.704Z,151.88
2018-06-20T06:06:29.745Z,157.50
2018-06-20T06:07:29.675Z,157.50
2018-06-20T06:08:29.664Z,157.50
2018-06-20T06:09:29.702Z,157.50
2018-06-20T06:10:29.634Z,157.50
2018-06-20T06:11:29.619Z,151.88
2018-06-20T06:12:29.607Z,151.88
2018-06-20T06:13:29.594Z,151.88
2018-06-20T06:15:29.565Z,151.88
2018-06-20T06:16:29.553Z,151.88
2018-06-20T06:17:29.539Z,146.25
2018-06-20T06:18:29.524Z,146.25
2018-06-20T06:19:29.509Z,146.25
2018-06-20T06:20:29.497Z,146.25
2018-06-20T06:21:29.482Z,146.25
2018-06-20T06:22:29.468Z,146.25
2018-06-20T06:23:29.456Z,151.88
2018-06-20T06:24:29.454Z,151.88
2018-06-20T06:25:29.426Z,157.50
2018-06-20T06:26:29.413Z,163.13
2018-06-20T06:27:29.412Z,163.13
2018-06-20T06:28:29.386Z,168.75
2018-06-20T06:29:29.370Z,168.75
2018-06-20T06:30:29.408Z,168.75
2018-06-20T06:31:29.347Z,174.38
2018-06-20T06:32:29.339Z,174.38
2018-06-20T06:33:29.317Z,174.38
2018-06-20T06:34:29.303Z,174.38
2018-06-20T06:35:29.288Z,174.38
2018-06-20T06:36:29.275Z,180.00
2018-06-20T06:37:29.263Z,185.63
2018-06-20T06:38:29.248Z,191.25
2018-06-20T06:39:29.235Z,196.88
2018-06-20T06:40:29.222Z,202.50
2018-06-20T06:41:29.205Z,208.13
2018-06-20T06:42:29.194Z,213.75
2018-06-20T06:43:29.181Z,213.75
2018-06-20T06:44:29.171Z,213.75
2018-06-20T06:45:29.161Z,219.38
2018-06-20T06:46:29.140Z,225.00
2018-06-20T06:47:29.127Z,230.63
2018-06-20T06:48:29.112Z,236.25
2018-06-20T06:49:29.144Z,241.88
2018-06-20T06:50:29.089Z,253.13
2018-06-20T06:51:29.073Z,264.38
2018-06-20T06:52:29.057Z,275.63
2018-06-20T06:53:29.046Z,286.88
2018-06-20T06:54:29.032Z,298.13
2018-06-20T06:55:29.021Z,315.00
2018-06-20T06:56:29.006Z,326.25
2018-06-20T06:57:29.003Z,348.75
2018-06-20T06:58:28.977Z,348.75
2018-06-20T06:59:28.964Z,348.75
2018-06-20T07:00:28.953Z,354.38
2018-06-20T07:01:28.937Z,371.25
2018-06-20T07:02:28.925Z,382.50
2018-06-20T07:03:28.911Z,388.13
2018-06-20T07:04:28.899Z,399.38
2018-06-20T07:05:28.886Z,410.63
2018-06-20T07:06:28.872Z,410.63
2018-06-20T07:07:28.859Z,410.63
2018-06-20T07:08:28.847Z,410.63
2018-06-20T07:09:28.832Z,405.00
2018-06-20T07:10:28.822Z,399.38
2018-06-20T07:11:28.806Z,393.75
2018-06-20T07:12:28.793Z,399.38
2018-06-20T07:13:28.780Z,405.00
2018-06-20T07:14:28.767Z,410.63
2018-06-20T07:15:28.780Z,410.63
2018-06-20T07:16:28.745Z,410.63
2018-06-20T07:17:28.729Z,421.88
2018-06-20T07:18:28.718Z,421.88
2018-06-20T07:19:28.706Z,427.50
2018-06-20T07:20:28.692Z,438.75
2018-06-20T07:21:28.679Z,438.75
2018-06-20T07:22:28.669Z,444.38
2018-06-20T07:23:28.656Z,455.63
2018-06-20T07:24:28.661Z,455.63
2018-06-20T07:25:28.629Z,461.25
2018-06-20T07:26:28.616Z,466.88
2018-06-20T07:27:28.608Z,466.88
2018-06-20T07:28:28.596Z,461.25
2018-06-20T07:29:28.587Z,455.63
2018-06-20T07:30:28.567Z,461.25
2018-06-20T07:31:28.558Z,466.88
2018-06-20T07:32:28.544Z,478.13
2018-06-20T07:33:28.558Z,478.13
2018-06-20T07:34:28.528Z,472.50
2018-06-20T07:35:28.532Z,466.88
2018-06-20T07:36:28.495Z,466.88
2018-06-20T07:37:28.483Z,466.88
2018-06-20T07:38:28.470Z,472.50
2018-06-20T07:39:28.457Z,483.75
2018-06-20T07:40:28.446Z,489.38
2018-06-20T07:41:28.436Z,489.38
2018-06-20T07:42:28.423Z,489.38
2018-06-20T07:43:28.412Z,483.75
2018-06-20T07:44:28.399Z,478.13
2018-06-20T07:45:28.392Z,478.13
2018-06-20T07:46:28.374Z,472.50
2018-06-20T07:47:28.365Z,466.88
2018-06-20T07:48:28.362Z,478.13
2018-06-20T07:49:28.341Z,478.13
2018-06-20T07:50:28.328Z,495.00
2018-06-20T07:51:28.319Z,511.88
2018-06-20T07:52:28.306Z,534.38
2018-06-20T07:53:34.565Z,540.00
2018-06-20T07:54:28.282Z,534.38
2018-06-20T07:55:28.274Z,528.75
2018-06-20T07:56:28.265Z,517.50
2018-06-20T07:57:28.251Z,511.88
2018-06-20T07:58:28.238Z,517.50
2018-06-20T07:59:28.230Z,540.00
2018-06-20T08:00:28.217Z,551.25
2018-06-20T08:01:28.203Z,562.50
2018-06-20T08:02:28.199Z,568.13
2018-06-20T08:03:28.180Z,579.38
2018-06-20T08:04:28.169Z,585.00
2018-06-20T08:05:28.160Z,596.25
2018-06-20T08:06:28.147Z,596.25
2018-06-20T08:07:28.137Z,607.50
2018-06-20T08:08:28.126Z,630.00
2018-06-20T08:09:28.114Z,630.00
2018-06-20T08:10:28.104Z,624.38
2018-06-20T08:11:28.093Z,624.38
2018-06-20T08:12:28.122Z,658.13
2018-06-20T08:13:28.070Z,675.00
2018-06-20T08:14:28.060Z,686.25
2018-06-20T08:15:28.049Z,731.25
2018-06-20T08:16:28.039Z,950.63
2018-06-20T08:17:28.028Z,1035.00
2018-06-20T08:18:28.017Z,849.38
2018-06-20T08:19:28.007Z,1130.63
2018-06-20T08:20:27.999Z,849.38
2018-06-20T08:21:27.985Z,871.88
2018-06-20T08:22:27.975Z,810.00
2018-06-20T08:23:27.963Z,725.63
2018-06-20T08:24:27.957Z,714.38
2018-06-20T08:25:27.944Z,793.13
2018-06-20T08:26:27.940Z,725.63
2018-06-20T08:27:27.924Z,804.38
2018-06-20T08:28:27.915Z,956.25
2018-06-20T08:29:27.903Z,1001.25
2018-06-20T08:30:27.897Z,1383.75
2018-06-20T08:31:27.885Z,877.50
2018-06-20T08:32:27.873Z,978.75
2018-06-20T08:33:27.861Z,950.63
2018-06-20T08:34:27.852Z,928.13
2018-06-20T08:35:27.844Z,939.38
2018-06-20T08:36:27.834Z,1096.88
2018-06-20T08:37:27.828Z,973.13
2018-06-20T08:38:27.813Z,961.88
2018-06-20T08:39:27.806Z,1355.63
2018-06-20T08:40:27.796Z,1209.38
2018-06-20T08:41:27.785Z,1080.00
2018-06-20T08:42:27.838Z,1080.00
2018-06-20T08:43:27.769Z,933.75
2018-06-20T08:44:27.760Z,1108.13
2018-06-20T08:45:27.750Z,1192.50
2018-06-20T08:46:27.740Z,883.13
2018-06-20T08:47:27.731Z,922.50
2018-06-20T08:48:27.726Z,1046.25
2018-06-20T08:49:27.714Z,1080.00
2018-06-20T08:50:27.713Z,1096.88
2018-06-20T08:51:27.705Z,1040.63
2018-06-20T08:52:27.690Z,1209.38
2018-06-20T08:53:27.679Z,1085.63
2018-06-20T08:54:27.669Z,1102.50
2018-06-20T08:55:27.672Z,1113.75
2018-06-20T08:56:27.654Z,1108.13
2018-06-20T08:57:27.643Z,1501.88
2018-06-20T08:58:27.635Z,1586.25
2018-06-20T08:59:27.628Z,2463.75
2018-06-20T09:00:27.626Z,1434.38
2018-06-20T09:01:27.609Z,1777.50
2018-06-20T09:02:27.601Z,1130.63
2018-06-20T09:03:27.593Z,1743.75
2018-06-20T09:04:27.596Z,967.50
2018-06-20T09:05:27.578Z,916.88
2018-06-20T09:06:27.571Z,1102.50
2018-06-20T09:07:27.561Z,939.38
2018-06-20T09:08:27.558Z,939.38
2018-06-20T09:09:27.545Z,900.00
2018-06-20T09:10:27.540Z,888.75
2018-06-20T09:11:27.539Z,961.88
2018-06-20T09:12:27.523Z,1035.00
2018-06-20T09:13:27.523Z,1023.75
2018-06-20T09:14:27.570Z,995.63
2018-06-20T09:15:27.499Z,1074.38
2018-06-20T09:16:27.491Z,1130.63
2018-06-20T09:17:27.488Z,1080.00
2018-06-20T09:18:27.476Z,1119.38
2018-06-20T09:19:27.465Z,1237.50
2018-06-20T09:20:27.473Z,1473.75
2018-06-20T09:21:27.453Z,1338.75
2018-06-20T09:22:27.442Z,1186.88
2018-06-20T09:23:27.438Z,1496.25
2018-06-20T09:24:27.429Z,1276.88
2018-06-20T09:25:27.427Z,1260.00
2018-06-20T09:26:27.412Z,1186.88
2018-06-20T09:27:27.456Z,1670.63
2018-06-20T09:28:27.400Z,1833.75
2018-06-20T09:29:27.392Z,1895.63
2018-06-20T09:30:27.383Z,1608.75
2018-06-20T09:31:27.376Z,1687.50
2018-06-20T09:32:27.371Z,1771.88
2018-06-20T09:33:27.361Z,1468.13
2018-06-20T09:34:27.356Z,1710.00
2018-06-20T09:35:27.347Z,1912.50
2018-06-20T09:36:27.339Z,1524.38
2018-06-20T09:37:27.336Z,1501.88
2018-06-20T09:38:27.330Z,393.75
2018-06-20T09:39:27.320Z,382.50
2018-06-20T09:40:27.324Z,376.88
2018-06-20T09:41:27.305Z,371.25
2018-06-20T09:42:27.299Z,382.50
2018-06-20T09:43:27.290Z,382.50
2018-06-20T09:44:27.284Z,376.88
2018-06-20T09:45:27.279Z,382.50
2018-06-20T09:46:27.276Z,393.75
2018-06-20T09:47:27.271Z,388.13
2018-06-20T09:48:27.257Z,393.75
2018-06-20T09:49:27.251Z,388.13
2018-06-20T09:50:27.244Z,382.50
2018-06-20T09:51:27.238Z,388.13
2018-06-20T09:52:27.235Z,382.50
2018-06-20T09:53:27.223Z,393.75
2018-06-20T09:54:27.217Z,388.13
2018-06-20T09:55:27.212Z,393.75
2018-06-20T09:56:27.204Z,388.13
2018-06-20T09:57:27.193Z,399.38
2018-06-20T09:58:27.188Z,399.38
2018-06-20T09:59:27.179Z,399.38
2018-06-20T10:00:27.174Z,399.38
2018-06-20T10:01:27.188Z,393.75
2018-06-20T10:02:27.159Z,393.75
2018-06-20T10:03:27.149Z,393.75
2018-06-20T10:04:27.143Z,393.75
2018-06-20T10:05:27.137Z,399.38
2018-06-20T10:06:27.170Z,399.38
2018-06-20T10:07:27.121Z,405.00
2018-06-20T10:08:27.114Z,416.25
2018-06-20T10:09:27.106Z,421.88
2018-06-20T10:10:27.099Z,427.50
2018-06-20T10:11:27.090Z,416.25
2018-06-20T10:12:27.084Z,405.00
2018-06-20T10:13:27.079Z,405.00
2018-06-20T10:14:27.068Z,405.00
2018-06-20T10:15:27.061Z,416.25
2018-06-20T10:16:27.056Z,416.25
2018-06-20T10:17:27.044Z,421.88
2018-06-20T10:18:27.036Z,427.50
2018-06-20T10:19:27.029Z,433.13
2018-06-20T10:20:27.023Z,433.13
2018-06-20T10:21:27.074Z,455.63
2018-06-20T10:22:27.009Z,455.63
2018-06-20T10:23:27.000Z,455.63
2018-06-20T10:24:26.992Z,438.75
2018-06-20T10:25:26.982Z,405.00
2018-06-20T10:26:26.976Z,388.13
2018-06-20T10:27:26.967Z,421.88
2018-06-20T10:28:26.970Z,405.00
2018-06-20T10:29:26.951Z,450.00
2018-06-20T10:30:26.944Z,416.25
2018-06-20T10:31:26.939Z,421.88
2018-06-20T10:32:26.933Z,393.75
2018-06-20T10:33:26.921Z,393.75
2018-06-20T10:34:26.917Z,399.38
2018-06-20T10:35:26.912Z,405.00
2018-06-20T10:36:26.896Z,405.00
2018-06-20T10:37:26.888Z,433.13
2018-06-20T10:38:26.882Z,472.50
2018-06-20T10:39:26.882Z,444.38
2018-06-20T10:40:26.867Z,405.00
2018-06-20T10:41:26.859Z,360.00
2018-06-20T10:42:26.851Z,275.63
2018-06-20T10:43:26.842Z,292.50
2018-06-20T10:44:26.835Z,354.38
2018-06-20T10:45:26.826Z,405.00
2018-06-20T10:46:26.822Z,444.38
2018-06-20T10:47:26.815Z,466.88
2018-06-20T10:48:26.805Z,556.88
2018-06-20T10:49:26.851Z,466.88
2018-06-20T10:50:26.788Z,438.75
2018-06-20T10:51:26.780Z,478.13
2018-06-20T10:52:26.772Z,393.75
2018-06-20T10:53:26.765Z,348.75
2018-06-20T10:54:26.821Z,354.38
2018-06-20T10:55:26.750Z,337.50
2018-06-20T10:56:26.745Z,348.75
2018-06-20T10:57:26.732Z,365.63
2018-06-20T10:58:26.724Z,354.38
2018-06-20T10:59:26.717Z,326.25
2018-06-20T11:00:26.761Z,309.38
2018-06-20T11:01:26.702Z,275.63
2018-06-20T11:02:26.694Z,275.63
2018-06-20T11:03:26.736Z,275.63
2018-06-20T11:04:26.679Z,281.25
2018-06-20T11:05:26.672Z,258.75
2018-06-20T11:06:26.667Z,236.25
2018-06-20T11:07:26.654Z,230.63
2018-06-20T11:08:26.647Z,225.00
2018-06-20T11:09:26.641Z,219.38
2018-06-20T11:10:26.631Z,213.75
2018-06-20T11:11:26.624Z,225.00
2018-06-20T11:12:26.614Z,236.25
2018-06-20T11:13:26.612Z,281.25
2018-06-20T11:14:26.600Z,331.88
2018-06-20T11:15:26.616Z,360.00
2018-06-20T11:16:26.583Z,365.63
2018-06-20T11:17:26.576Z,348.75
2018-06-20T11:18:26.565Z,303.75
2018-06-20T11:19:26.559Z,303.75
2018-06-20T11:20:26.555Z,298.13
2018-06-20T11:21:26.544Z,298.13
2018-06-20T11:22:26.540Z,298.13
2018-06-20T11:23:26.528Z,309.38
2018-06-20T11:24:26.518Z,315.00
2018-06-20T11:25:26.508Z,326.25
2018-06-20T11:26:26.502Z,331.88
2018-06-20T11:27:26.493Z,326.25
2018-06-20T11:28:26.485Z,326.25
2018-06-20T11:29:26.476Z,303.75
2018-06-20T11:30:26.467Z,275.63
2018-06-20T11:31:26.459Z,258.75
2018-06-20T11:32:26.451Z,264.38
2018-06-20T11:33:26.443Z,270.00
2018-06-20T11:34:26.433Z,281.25
2018-06-20T11:35:26.424Z,281.25
2018-06-20T11:36:26.417Z,264.38
2018-06-20T11:37:26.407Z,264.38
2018-06-20T11:38:26.399Z,275.63
2018-06-20T11:39:26.407Z,286.88
2018-06-20T11:40:26.384Z,292.50
2018-06-20T11:41:26.374Z,292.50
2018-06-20T11:42:26.368Z,303.75
2018-06-20T11:43:26.359Z,315.00
2018-06-20T11:44:26.351Z,331.88
2018-06-20T11:45:26.340Z,337.50
2018-06-20T11:46:26.332Z,348.75
2018-06-20T11:47:26.327Z,388.13
2018-06-20T11:48:26.319Z,343.13
2018-06-20T11:49:26.306Z,320.63
2018-06-20T11:50:26.297Z,303.75
2018-06-20T11:51:26.289Z,275.63
2018-06-20T11:52:26.281Z,264.38
2018-06-20T11:53:26.276Z,270.00
2018-06-20T11:54:26.285Z,247.50
2018-06-20T11:55:26.257Z,264.38
2018-06-20T11:56:26.249Z,258.75
2018-06-20T11:57:26.239Z,241.88
2018-06-20T11:58:26.235Z,264.38
2018-06-20T11:59:26.222Z,258.75
2018-06-20T12:00:26.217Z,258.75
2018-06-20T12:01:26.211Z,275.63
2018-06-20T12:02:26.198Z,410.63
2018-06-20T12:03:26.194Z,393.75
2018-06-20T12:04:26.184Z,686.25
2018-06-20T12:05:26.170Z,326.25
2018-06-20T12:06:26.177Z,309.38
2018-06-20T12:07:26.153Z,275.63
2018-06-20T12:08:26.147Z,241.88
2018-06-20T12:09:26.136Z,444.38
2018-06-20T12:10:26.130Z,247.50
2018-06-20T12:11:26.123Z,253.13
2018-06-20T12:12:26.111Z,253.13
2018-06-20T12:13:26.107Z,241.88
2018-06-20T12:14:26.098Z,241.88
2018-06-20T12:15:26.086Z,241.88
2018-06-20T12:16:26.083Z,253.13
2018-06-20T12:17:26.067Z,270.00
2018-06-20T12:18:26.062Z,309.38
2018-06-20T12:19:26.055Z,303.75
2018-06-20T12:20:26.044Z,309.38
2018-06-20T12:21:26.035Z,281.25
2018-06-20T12:22:26.027Z,292.50
2018-06-20T12:23:26.018Z,286.88
2018-06-20T12:24:26.014Z,286.88
2018-06-20T12:25:26.009Z,286.88
2018-06-20T12:26:25.992Z,281.25
2018-06-20T12:27:25.986Z,270.00
2018-06-20T12:28:25.979Z,281.25
2018-06-20T12:29:26.050Z,286.88
2018-06-20T12:30:25.959Z,275.63
2018-06-20T12:31:25.954Z,275.63
2018-06-20T12:32:25.945Z,298.13
2018-06-20T12:33:25.939Z,298.13
2018-06-20T12:34:25.932Z,286.88
2018-06-20T12:35:25.919Z,281.25
2018-06-20T12:36:25.912Z,241.88
2018-06-20T12:37:25.901Z,230.63
2018-06-20T12:38:25.893Z,213.75
2018-06-20T12:39:25.893Z,202.50
2018-06-20T12:40:25.878Z,185.63
2018-06-20T12:41:25.869Z,174.38
2018-06-20T12:42:25.860Z,174.38
2018-06-20T12:43:25.850Z,213.75